createdAt,value
2023-05-09T00:01:11.743Z,101666.95
2023-05-09T00:03:44.187Z,101664.60
2023-05-09T00:06:17.440Z,101668.94
2023-05-09T00:08:49.260Z,101669.11
2023-05-09T00:11:21.876Z,101669.67
2023-05-09T00:13:53.646Z,101670.20
2023-05-09T00:16:25.395Z,101669.13
2023-05-09T00:18:57.916Z,101668.60
2023-05-09T00:21:30.302Z,101667.52
2023-05-09T00:24:02.089Z,101665.17
2023-05-09T00:26:33.907Z,101661.75
2023-05-09T00:29:06.040Z,101661.20
2023-05-09T00:31:37.928Z,101658.51
2023-05-09T00:34:09.688Z,101660.31
2023-05-09T00:36:41.978Z,101657.77
2023-05-09T00:39:14.260Z,101658.87
2023-05-09T00:41:45.965Z,101653.47
2023-05-09T00:44:17.786Z,101649.34
2023-05-09T00:46:49.584Z,101647.91
2023-05-09T00:49:21.854Z,101652.05
2023-05-09T00:51:55.548Z,101650.61
2023-05-09T00:54:27.626Z,101650.08
2023-05-09T00:56:59.307Z,101649.52
2023-05-09T00:59:31.042Z,101648.63
2023-05-09T01:02:02.815Z,101645.00
2023-05-09T01:04:34.820Z,101641.04
2023-05-09T01:07:12.544Z,101644.84
2023-05-09T01:09:52.588Z,101639.42
2023-05-09T01:12:32.496Z,101636.90
2023-05-09T01:15:11.720Z,101635.10
2023-05-09T01:17:51.072Z,101637.45
2023-05-09T01:20:30.534Z,101635.29
2023-05-09T01:23:20.789Z,101634.20
2023-05-09T01:26:03.046Z,101634.55
2023-05-09T01:29:03.469Z,101636.91
2023-05-09T01:31:39.230Z,101631.69
2023-05-09T01:34:15.296Z,101628.98
2023-05-09T01:36:51.040Z,101621.59
2023-05-09T01:39:25.449Z,101623.23
2023-05-09T01:42:01.985Z,101617.45
2023-05-09T01:44:38.277Z,101626.65
2023-05-09T01:47:10.679Z,101631.33
2023-05-09T01:49:44.501Z,101628.10
2023-05-09T01:52:20.086Z,101629.88
2023-05-09T01:54:53.721Z,101627.02
2023-05-09T01:57:27.063Z,101620.52
2023-05-09T02:00:00.746Z,101621.06
2023-05-09T02:02:33.656Z,101617.80
2023-05-09T02:05:06.292Z,101616.91
2023-05-09T02:07:39.332Z,101621.41
2023-05-09T02:10:13.071Z,101622.14
2023-05-09T02:12:46.424Z,101626.83
2023-05-09T02:15:19.148Z,101616.36
2023-05-09T02:17:50.950Z,101615.64
2023-05-09T02:20:23.025Z,101610.23
2023-05-09T02:22:55.409Z,101602.65
2023-05-09T02:25:27.115Z,101605.72
2023-05-09T02:28:00.063Z,101603.92
2023-05-09T02:30:37.750Z,101599.60
2023-05-09T02:33:12.711Z,101601.03
2023-05-09T02:35:47.484Z,101598.33
2023-05-09T02:38:19.559Z,101596.68
2023-05-09T02:40:52.828Z,101598.85
2023-05-09T02:43:24.523Z,101599.38
2023-05-09T02:45:56.359Z,101598.84
2023-05-09T02:48:28.049Z,101599.75
2023-05-09T02:50:59.828Z,101597.41
2023-05-09T02:53:31.513Z,101595.42
2023-05-09T02:56:03.916Z,101596.69
2023-05-09T02:58:35.707Z,101593.63
2023-05-09T03:01:07.696Z,101594.70
2023-05-09T03:03:39.561Z,101599.04
2023-05-09T03:06:11.875Z,101600.10
2023-05-09T03:08:43.702Z,101595.05
2023-05-09T03:11:15.736Z,101588.34
2023-05-09T03:13:47.823Z,101596.09
2023-05-09T03:16:21.117Z,101595.20
2023-05-09T03:18:53.161Z,101595.38
2023-05-09T03:21:25.001Z,101591.41
2023-05-09T03:23:56.916Z,101593.75
2023-05-09T03:26:28.702Z,101592.12
2023-05-09T03:29:00.527Z,101591.41
2023-05-09T03:31:32.759Z,101589.96
2023-05-09T03:34:04.599Z,101595.38
2023-05-09T03:36:36.276Z,101591.02
2023-05-09T03:39:09.933Z,101592.82
2023-05-09T03:41:44.100Z,101593.17
2023-05-09T03:44:15.962Z,101591.20
2023-05-09T03:46:47.717Z,101589.21
2023-05-09T03:49:19.599Z,101592.11
2023-05-09T03:51:51.996Z,101595.34
2023-05-09T03:54:23.798Z,101595.89
2023-05-09T03:56:56.047Z,101598.44
2023-05-09T03:59:28.234Z,101593.76
2023-05-09T04:02:00.679Z,101598.09
2023-05-09T04:04:32.900Z,101597.73
2023-05-09T04:07:04.053Z,101595.59
2023-05-09T04:09:36.192Z,101594.67
2023-05-09T04:12:08.718Z,101589.98
2023-05-09T04:14:40.852Z,101593.08
2023-05-09T04:17:12.758Z,101590.73
2023-05-09T04:19:44.535Z,101594.52
2023-05-09T04:22:16.307Z,101593.27
2023-05-09T04:24:48.227Z,101592.89
2023-05-09T04:27:20.009Z,101593.80
2023-05-09T04:29:53.546Z,101592.19
2023-05-09T04:32:26.962Z,101594.88
2023-05-09T04:34:59.654Z,101594.54
2023-05-09T04:37:34.582Z,101597.61
2023-05-09T04:40:09.129Z,101588.77
2023-05-09T04:42:45.230Z,101590.75
2023-05-09T04:45:17.243Z,101590.93
2023-05-09T04:47:49.291Z,101589.85
2023-05-09T04:50:21.110Z,101591.48
2023-05-09T04:52:53.392Z,101590.03
2023-05-09T04:55:26.291Z,101591.12
2023-05-09T04:57:58.640Z,101589.31
2023-05-09T05:00:31.092Z,101587.15
2023-05-09T05:03:03.452Z,101587.33
2023-05-09T05:05:37.421Z,101588.94
2023-05-09T05:08:10.220Z,101585.51
2023-05-09T05:10:43.980Z,101588.39
2023-05-09T05:13:17.470Z,101589.83
2023-05-09T05:15:51.763Z,101591.09
2023-05-09T05:18:25.019Z,101591.27
2023-05-09T05:20:56.936Z,101589.82
2023-05-09T05:23:28.784Z,101588.90
2023-05-09T05:26:00.893Z,101590.51
2023-05-09T05:28:33.068Z,101593.03
2023-05-09T05:31:05.010Z,101592.83
2023-05-09T05:33:37.374Z,101591.58
2023-05-09T05:36:08.917Z,101595.91
2023-05-09T05:38:40.735Z,101593.71
2023-05-09T05:41:12.951Z,101588.10
2023-05-09T05:43:45.385Z,101585.73
2023-05-09T05:46:18.856Z,101586.25
2023-05-09T05:48:51.138Z,101588.92
2023-05-09T05:51:22.940Z,101591.58
2023-05-09T05:53:54.666Z,101590.81
2023-05-09T05:56:27.618Z,101594.42
2023-05-09T05:59:00.794Z,101599.25
2023-05-09T06:01:33.112Z,101600.10
2023-05-09T06:04:05.059Z,101601.52
2023-05-09T06:06:38.193Z,101594.95
2023-05-09T06:09:10.038Z,101591.87
2023-05-09T06:11:41.743Z,101590.58
2023-05-09T06:14:13.601Z,101588.70
2023-05-09T06:16:45.818Z,101579.42
2023-05-09T06:19:17.542Z,101588.98
2023-05-09T06:21:49.281Z,101588.41
2023-05-09T06:24:34.633Z,101592.67
2023-05-09T06:27:08.636Z,101592.05
2023-05-09T06:29:40.724Z,101593.45
2023-05-09T06:32:12.442Z,101590.70
2023-05-09T06:34:44.140Z,101589.02
2023-05-09T06:37:15.861Z,101588.27
2023-05-09T06:39:47.596Z,101584.27
2023-05-09T06:42:19.249Z,101576.05
2023-05-09T06:44:51.597Z,101574.17
2023-05-09T06:47:23.398Z,101569.73
2023-05-09T06:49:55.710Z,101574.17
2023-05-09T06:52:27.482Z,101570.84
2023-05-09T06:54:59.744Z,101565.00
2023-05-09T06:57:31.657Z,101565.13
2023-05-09T07:00:04.866Z,101559.80
2023-05-09T07:02:37.078Z,101557.98
2023-05-09T07:05:11.012Z,101557.92
2023-05-09T07:07:43.010Z,101556.96
2023-05-09T07:10:15.414Z,101561.84
2023-05-09T07:12:47.175Z,101553.23
2023-05-09T07:15:32.475Z,101555.69
2023-05-09T07:18:09.204Z,101549.67
2023-05-09T07:20:41.374Z,101544.85
2023-05-09T07:23:13.213Z,101542.23
2023-05-09T07:25:45.349Z,101547.96
2023-05-09T07:28:17.135Z,101545.16
2023-05-09T07:30:49.195Z,101543.27
2023-05-09T07:33:21.375Z,101543.39
2023-05-09T07:35:53.991Z,101532.48
2023-05-09T07:38:26.375Z,101537.42
2023-05-09T07:40:58.101Z,101530.14
2023-05-09T07:43:29.963Z,101539.05
2023-05-09T07:46:02.021Z,101532.95
2023-05-09T07:48:33.838Z,101523.64
2023-05-09T07:51:05.764Z,101515.58
2023-05-09T07:53:37.534Z,101515.52
2023-05-09T07:56:09.450Z,101508.00
2023-05-09T07:58:41.196Z,101503.92
2023-05-09T08:01:13.068Z,101511.59
2023-05-09T08:03:45.185Z,101503.77
2023-05-09T08:06:17.056Z,101504.13
2023-05-09T08:08:49.647Z,101502.97
2023-05-09T08:11:21.458Z,101499.88
2023-05-09T08:13:53.702Z,101498.58
2023-05-09T08:16:25.602Z,101502.06
2023-05-09T08:18:58.051Z,101498.20
2023-05-09T08:21:30.256Z,101498.02
2023-05-09T08:24:02.010Z,101494.11
2023-05-09T08:26:34.001Z,101493.17
2023-05-09T08:29:05.913Z,101490.41
2023-05-09T08:31:38.248Z,101485.93
2023-05-09T08:34:10.535Z,101487.67
2023-05-09T08:36:45.544Z,101478.48
2023-05-09T08:39:17.592Z,101480.41
2023-05-09T08:41:49.432Z,101472.73
2023-05-09T08:44:23.420Z,101473.75
2023-05-09T08:47:01.986Z,101477.10
2023-05-09T08:49:34.590Z,101472.60
2023-05-09T08:52:07.198Z,101461.30
2023-05-09T08:54:37.526Z,101466.31
2023-05-09T08:57:10.046Z,101458.73
2023-05-09T08:59:43.396Z,101467.61
2023-05-09T09:02:17.406Z,101461.25
2023-05-09T09:04:50.082Z,101458.45
2023-05-09T09:07:23.708Z,101452.78
2023-05-09T09:09:56.760Z,101447.92
2023-05-09T09:12:28.963Z,101451.64
2023-05-09T09:15:05.875Z,101446.96
2023-05-09T09:17:42.056Z,101453.27
2023-05-09T09:20:17.444Z,101444.08
2023-05-09T09:22:52.964Z,101437.91
2023-05-09T09:25:24.631Z,101434.16
2023-05-09T09:27:56.472Z,101440.96
2023-05-09T09:30:29.287Z,101434.05
2023-05-09T09:33:02.640Z,101433.85
2023-05-09T09:35:43.491Z,101423.64
2023-05-09T09:38:15.772Z,101425.34
2023-05-09T09:40:56.052Z,101426.42
2023-05-09T09:43:32.204Z,101421.29
2023-05-09T09:46:05.899Z,101416.27
2023-05-09T09:48:39.475Z,101406.81
2023-05-09T09:51:12.619Z,101411.13
2023-05-09T09:53:45.587Z,101405.23
2023-05-09T09:56:17.271Z,101397.56
2023-05-09T09:58:49.239Z,101401.52
2023-05-09T10:01:21.069Z,101397.69
2023-05-09T10:03:52.870Z,101399.46
2023-05-09T10:06:24.553Z,101386.40
2023-05-09T10:08:56.386Z,101387.36
2023-05-09T10:11:28.205Z,101381.73
2023-05-09T10:14:00.087Z,101378.34
2023-05-09T10:16:43.174Z,101381.19
2023-05-09T10:19:20.816Z,101380.62
2023-05-09T10:21:55.878Z,101365.20
2023-05-09T10:24:34.730Z,101370.36
2023-05-09T10:27:11.038Z,101364.80
2023-05-09T10:29:48.185Z,101357.88
2023-05-09T10:32:25.663Z,101357.44
2023-05-09T10:35:03.451Z,101350.69
2023-05-09T10:37:36.460Z,101358.84
2023-05-09T10:40:13.917Z,101346.59
2023-05-09T10:42:46.353Z,101338.29
2023-05-09T10:45:18.399Z,101338.95
2023-05-09T10:47:52.934Z,101339.88
2023-05-09T10:50:25.811Z,101336.04
2023-05-09T10:53:16.992Z,101344.44
2023-05-09T10:55:55.417Z,101334.51
2023-05-09T10:58:33.520Z,101320.71
2023-05-09T11:01:06.112Z,101328.00
2023-05-09T11:03:57.923Z,101320.64
2023-05-09T11:06:51.259Z,101314.10
2023-05-09T11:09:36.219Z,101319.05
2023-05-09T11:12:16.239Z,101313.34
2023-05-09T11:14:50.182Z,101309.86
2023-05-09T11:17:32.640Z,101311.20
2023-05-09T11:20:06.660Z,101299.19
2023-05-09T11:22:43.620Z,101298.64
2023-05-09T11:25:17.006Z,101291.90
2023-05-09T11:27:51.999Z,101285.77
2023-05-09T11:30:24.147Z,101284.11
2023-05-09T11:32:58.904Z,101279.64
2023-05-09T11:35:31.334Z,101283.48
2023-05-09T11:38:05.862Z,101277.90
2023-05-09T11:40:38.259Z,101273.46
2023-05-09T11:43:10.406Z,101278.63
2023-05-09T11:45:44.142Z,101274.95
2023-05-09T11:48:16.625Z,101266.96
2023-05-09T11:50:50.090Z,101257.80
2023-05-09T11:53:21.926Z,101254.65
2023-05-09T11:55:55.563Z,101241.69
2023-05-09T11:58:27.560Z,101231.25
2023-05-09T12:01:00.053Z,101227.72
2023-05-09T12:03:30.911Z,101220.14
2023-05-09T12:06:03.426Z,101223.67
2023-05-09T12:08:36.620Z,101219.04
2023-05-09T12:11:13.917Z,101216.39
2023-05-09T12:13:51.046Z,101211.18
2023-05-09T12:16:23.196Z,101203.52
2023-05-09T12:18:55.389Z,101203.20
2023-05-09T12:21:28.438Z,101206.27
2023-05-09T12:24:00.519Z,101202.78
2023-05-09T12:26:33.016Z,101194.93
2023-05-09T12:29:05.103Z,101190.27
2023-05-09T12:31:37.277Z,101187.34
2023-05-09T12:34:09.919Z,101183.38
2023-05-09T12:36:50.422Z,101185.44
2023-05-09T12:39:24.412Z,101180.65
2023-05-09T12:42:01.707Z,101178.02
2023-05-09T12:44:34.252Z,101166.89
2023-05-09T12:47:06.642Z,101162.48
2023-05-09T12:49:39.254Z,101165.55
2023-05-09T12:52:17.391Z,101161.03
2023-05-09T12:54:50.288Z,101157.19
2023-05-09T12:57:28.790Z,101154.67
2023-05-09T13:00:03.262Z,101150.69
2023-05-09T13:02:39.145Z,101147.64
2023-05-09T13:05:15.654Z,101134.27
2023-05-09T13:07:49.693Z,101139.00
2023-05-09T13:10:25.248Z,101134.08
2023-05-09T13:12:57.301Z,101127.13
2023-05-09T13:15:29.676Z,101126.48
2023-05-09T13:18:01.483Z,101124.40
2023-05-09T13:20:33.700Z,101118.23
2023-05-09T13:23:06.379Z,101109.59
2023-05-09T13:25:38.210Z,101111.44
2023-05-09T13:28:10.280Z,101112.73
2023-05-09T13:30:42.144Z,101108.05
2023-05-09T13:33:25.223Z,101103.16
2023-05-09T13:35:58.061Z,101102.65
2023-05-09T13:38:30.910Z,101102.48
2023-05-09T13:41:02.921Z,101094.02
2023-05-09T13:43:34.845Z,101083.59
2023-05-09T13:46:06.826Z,101082.88
2023-05-09T13:48:39.679Z,101082.98
2023-05-09T13:51:11.622Z,101072.73
2023-05-09T13:53:43.475Z,101063.14
2023-05-09T13:56:15.209Z,101063.71
2023-05-09T13:58:47.203Z,101056.23
2023-05-09T14:01:19.392Z,101044.57
2023-05-09T14:03:51.481Z,101062.23
2023-05-09T14:06:23.317Z,101057.03
2023-05-09T14:08:55.200Z,101048.63
2023-05-09T14:11:27.274Z,101043.58
2023-05-09T14:13:59.142Z,101038.67
2023-05-09T14:16:31.157Z,101033.65
2023-05-09T14:19:03.093Z,101023.99
2023-05-09T14:21:34.877Z,101015.82
2023-05-09T14:24:07.770Z,101023.90
2023-05-09T14:26:39.980Z,101021.85
2023-05-09T14:29:11.920Z,101016.58
2023-05-09T14:31:43.974Z,101013.06
2023-05-09T14:34:15.943Z,101003.30
2023-05-09T14:36:48.854Z,100995.50
2023-05-09T14:39:21.746Z,101003.58
2023-05-09T14:41:53.669Z,100997.86
2023-05-09T14:44:26.450Z,100993.63
2023-05-09T14:46:59.095Z,100997.06
2023-05-09T14:49:30.950Z,100991.98
2023-05-09T14:52:03.572Z,100988.71
2023-05-09T14:54:34.730Z,100977.20
2023-05-09T14:57:07.524Z,100977.52
2023-05-09T14:59:39.403Z,100980.29
2023-05-09T15:02:11.424Z,100972.05
2023-05-09T15:04:43.917Z,100973.55
2023-05-09T15:07:15.700Z,100966.73
2023-05-09T15:09:47.465Z,100965.38
2023-05-09T15:12:19.350Z,100961.69
2023-05-09T15:14:53.850Z,100956.52
2023-05-09T15:17:26.446Z,100942.42
2023-05-09T15:19:56.789Z,100939.89
2023-05-09T15:22:33.550Z,100939.77
2023-05-09T15:25:06.422Z,100938.88
2023-05-09T15:27:38.420Z,100938.50
2023-05-09T15:30:12.161Z,100939.84
2023-05-09T15:32:44.187Z,100932.80
2023-05-09T15:35:18.403Z,100933.82
2023-05-09T15:37:50.252Z,100933.44
2023-05-09T15:40:22.005Z,100931.95
2023-05-09T15:42:54.019Z,100925.22
2023-05-09T15:45:25.766Z,100923.63
2023-05-09T15:47:57.495Z,100927.60
2023-05-09T15:50:29.294Z,100917.91
2023-05-09T15:53:01.070Z,100914.48
2023-05-09T15:55:33.851Z,100905.35
2023-05-09T15:58:06.324Z,100905.63
2023-05-09T16:00:38.071Z,100904.79
2023-05-09T16:03:10.952Z,100901.83
2023-05-09T16:05:43.312Z,100895.73
2023-05-09T16:08:17.050Z,100888.20
2023-05-09T16:10:49.147Z,100888.02
2023-05-09T16:13:21.420Z,100884.73
2023-05-09T16:15:53.859Z,100878.45
2023-05-09T16:18:24.152Z,100872.80
2023-05-09T16:20:56.255Z,100877.34
2023-05-09T16:23:28.088Z,100869.23
2023-05-09T16:26:00.363Z,100867.07
2023-05-09T16:28:32.357Z,100869.01
2023-05-09T16:31:05.518Z,100864.73
2023-05-09T16:33:37.442Z,100858.45
2023-05-09T16:36:09.919Z,100854.51
2023-05-09T16:38:41.920Z,100856.20
2023-05-09T16:41:14.105Z,100850.21
2023-05-09T16:43:45.864Z,100848.96
2023-05-09T16:46:17.744Z,100850.65
2023-05-09T16:48:51.688Z,100850.42
2023-05-09T16:51:24.129Z,100838.59
2023-05-09T16:53:55.873Z,100835.14
2023-05-09T16:56:27.885Z,100828.11
2023-05-09T16:58:59.642Z,100827.29
2023-05-09T17:01:31.662Z,100827.97
2023-05-09T17:04:06.495Z,100824.23
2023-05-09T17:06:38.251Z,100821.23
2023-05-09T17:09:10.061Z,100812.76
2023-05-09T17:11:41.757Z,100804.77
2023-05-09T17:14:13.573Z,100804.35
2023-05-09T17:16:45.421Z,100803.13
2023-05-09T17:19:18.884Z,100801.71
2023-05-09T17:21:50.745Z,100801.95
2023-05-09T17:24:22.531Z,100796.57
2023-05-09T17:26:54.948Z,100793.23
2023-05-09T17:29:29.091Z,100792.95
2023-05-09T17:32:01.586Z,100789.08
2023-05-09T17:34:32.327Z,100791.11
2023-05-09T17:37:05.799Z,100791.58
2023-05-09T17:39:38.598Z,100794.55
2023-05-09T17:42:12.194Z,100796.46
2023-05-09T17:44:44.602Z,100792.20
2023-05-09T17:47:16.917Z,100792.91
2023-05-09T17:49:48.661Z,100792.40
2023-05-09T17:52:23.203Z,100793.26
2023-05-09T17:54:55.165Z,100789.77
2023-05-09T17:57:27.370Z,100794.33
2023-05-09T18:00:00.338Z,100795.63
2023-05-09T18:02:32.073Z,100792.10
2023-05-09T18:05:04.844Z,100791.61
2023-05-09T18:07:35.033Z,100788.02
2023-05-09T18:10:08.910Z,100790.60
2023-05-09T18:12:40.814Z,100794.42
2023-05-09T18:15:13.040Z,100792.33
2023-05-09T18:17:48.219Z,100789.17
2023-05-09T18:20:20.263Z,100792.06
2023-05-09T18:22:53.733Z,100789.54
2023-05-09T18:25:25.605Z,100786.09
2023-05-09T18:27:58.321Z,100784.69
2023-05-09T18:30:29.124Z,100789.03
2023-05-09T18:33:02.873Z,100784.20
2023-05-09T18:35:34.908Z,100784.10
2023-05-09T18:38:06.856Z,100785.16
2023-05-09T18:40:38.741Z,100783.96
2023-05-09T18:43:10.680Z,100790.48
2023-05-09T18:45:45.088Z,100793.33
2023-05-09T18:48:17.367Z,100795.46
2023-05-09T18:50:52.339Z,100800.59
2023-05-09T18:53:25.992Z,100800.84
2023-05-09T18:55:57.788Z,100801.29
2023-05-09T18:58:29.558Z,100806.88
2023-05-09T19:01:02.156Z,100805.39
2023-05-09T19:03:33.068Z,100805.75
2023-05-09T19:06:05.569Z,100807.90
2023-05-09T19:08:37.273Z,100804.80
2023-05-09T19:11:09.898Z,100800.52
2023-05-09T19:13:48.433Z,100803.36
2023-05-09T19:16:21.766Z,100803.67
2023-05-09T19:18:55.112Z,100803.40
2023-05-09T19:21:25.535Z,100804.75
2023-05-09T19:23:57.598Z,100802.43
2023-05-09T19:26:29.291Z,100797.17
2023-05-09T19:29:04.081Z,100800.33
2023-05-09T19:31:37.020Z,100798.39
2023-05-09T19:34:08.226Z,100798.05
2023-05-09T19:36:40.165Z,100788.98
2023-05-09T19:39:12.151Z,100790.37
2023-05-09T19:41:44.005Z,100791.30
2023-05-09T19:44:16.050Z,100789.35
2023-05-09T19:46:47.927Z,100791.52
2023-05-09T19:49:19.827Z,100787.41
2023-05-09T19:51:51.932Z,100785.82
2023-05-09T19:54:26.986Z,100790.17
2023-05-09T19:56:58.746Z,100791.45
2023-05-09T19:59:31.650Z,100788.46
2023-05-09T20:02:03.834Z,100783.29
2023-05-09T20:04:38.601Z,100783.73
2023-05-09T20:07:10.435Z,100781.74
2023-05-09T20:09:42.231Z,100784.79
2023-05-09T20:12:14.347Z,100782.70
2023-05-09T20:14:46.179Z,100781.96
2023-05-09T20:17:18.407Z,100780.05
2023-05-09T20:19:53.211Z,100775.61
2023-05-09T20:22:25.416Z,100779.31
2023-05-09T20:24:57.514Z,100774.63
2023-05-09T20:27:29.367Z,100776.09
2023-05-09T20:30:01.146Z,100777.55
2023-05-09T20:32:33.026Z,100777.95
2023-05-09T20:35:05.431Z,100774.63
2023-05-09T20:37:37.684Z,100774.01
2023-05-09T20:40:11.627Z,100772.52
2023-05-09T20:42:43.932Z,100773.17
2023-05-09T20:45:15.781Z,100773.90
2023-05-09T20:47:47.642Z,100770.17
2023-05-09T20:50:19.910Z,100768.02
2023-05-09T20:52:51.693Z,100766.03
2023-05-09T20:55:23.921Z,100766.13
2023-05-09T20:57:55.750Z,100763.23
2023-05-09T21:00:28.004Z,100760.67
2023-05-09T21:03:00.434Z,100762.83
2023-05-09T21:05:32.304Z,100761.09
2023-05-09T21:08:04.223Z,100760.97
2023-05-09T21:10:35.924Z,100755.75
2023-05-09T21:13:09.130Z,100753.94
2023-05-09T21:15:40.908Z,100750.58
2023-05-09T21:18:12.730Z,100747.08
2023-05-09T21:20:45.472Z,100746.73
2023-05-09T21:23:18.531Z,100746.16
2023-05-09T21:25:50.596Z,100748.31
2023-05-09T21:28:22.386Z,100743.70
2023-05-09T21:30:54.703Z,100743.42
2023-05-09T21:33:27.067Z,100739.96
2023-05-09T21:35:59.254Z,100738.85
2023-05-09T21:38:30.998Z,100732.46
2023-05-09T21:41:02.795Z,100732.52
2023-05-09T21:43:34.597Z,100730.08
2023-05-09T21:46:08.110Z,100729.84
2023-05-09T21:48:40.535Z,100729.93
2023-05-09T21:51:12.483Z,100729.60
2023-05-09T21:53:44.271Z,100727.41
2023-05-09T21:56:16.106Z,100732.16
2023-05-09T21:58:48.227Z,100729.64
2023-05-09T22:01:21.261Z,100728.42
2023-05-09T22:03:53.124Z,100724.85
2023-05-09T22:06:25.562Z,100725.91
2023-05-09T22:08:57.415Z,100726.66
2023-05-09T22:11:29.210Z,100722.77
2023-05-09T22:14:01.233Z,100725.45
2023-05-09T22:16:33.169Z,100726.57
2023-05-09T22:19:05.427Z,100716.36
2023-05-09T22:21:37.156Z,100722.96
2023-05-09T22:24:12.108Z,100723.05
2023-05-09T22:26:44.047Z,100719.30
2023-05-09T22:29:17.620Z,100718.11
2023-05-09T22:31:49.384Z,100716.79
2023-05-09T22:34:21.126Z,100715.82
2023-05-09T22:36:54.418Z,100713.94
2023-05-09T22:39:26.790Z,100712.27
2023-05-09T22:41:58.444Z,100711.63
2023-05-09T22:44:30.091Z,100704.55
2023-05-09T22:47:01.730Z,100704.06
2023-05-09T22:49:33.851Z,100701.45
2023-05-09T22:52:05.743Z,100701.71
2023-05-09T22:54:37.704Z,100701.32
2023-05-09T22:57:09.482Z,100701.64
2023-05-09T22:59:41.203Z,100701.76
2023-05-09T23:02:13.396Z,100703.36
2023-05-09T23:04:45.266Z,100704.75
2023-05-09T23:07:16.957Z,100702.49
2023-05-09T23:09:49.268Z,100694.98
2023-05-09T23:12:21.204Z,100702.42
2023-05-09T23:14:52.880Z,100699.00
2023-05-09T23:17:24.708Z,100696.36
2023-05-09T23:19:56.447Z,100693.09
2023-05-09T23:22:28.241Z,100692.48
2023-05-09T23:25:00.995Z,100691.84
2023-05-09T23:27:31.768Z,100687.90
2023-05-09T23:30:03.427Z,100687.25
2023-05-09T23:32:35.133Z,100677.75
2023-05-09T23:35:07.992Z,100687.29
2023-05-09T23:37:39.846Z,100684.50
2023-05-09T23:40:13.927Z,100684.38
2023-05-09T23:42:46.234Z,100683.59
2023-05-09T23:45:17.918Z,100675.34
2023-05-09T23:47:49.928Z,100676.03
2023-05-09T23:50:21.976Z,100673.84
2023-05-09T23:52:53.667Z,100671.68
2023-05-09T23:55:25.585Z,100668.05
2023-05-09T23:57:57.511Z,100661.77
